sensor_id;sensor_type;location;lat;lon;timestamp;pressure;altitude;pressure_sealevel;temperature;humidity
33496;BME280;19836;55.812;37.560;2023-08-07T00:02:07;99536.16;;;26.15;55.32
33496;BME280;19836;55.812;37.560;2023-08-07T00:04:33;99537.31;;;26.12;55.29
33496;BME280;19836;55.812;37.560;2023-08-07T00:06:58;99535.59;;;26.11;55.51
33496;BME280;19836;55.812;37.560;2023-08-07T00:09:24;99539.63;;;26.07;55.66
33496;BME280;19836;55.812;37.560;2023-08-07T00:11:50;99537.91;;;26.06;55.78
33496;BME280;19836;55.812;37.560;2023-08-07T00:14:16;99541.81;;;26.04;55.85
33496;BME280;19836;55.812;37.560;2023-08-07T00:16:42;99545.72;;;26.01;55.93
33496;BME280;19836;55.812;37.560;2023-08-07T00:19:08;99550.47;;;25.99;55.80
33496;BME280;19836;55.812;37.560;2023-08-07T00:21:34;99540.81;;;25.95;55.91
33496;BME280;19836;55.812;37.560;2023-08-07T00:24:01;99555.56;;;25.94;55.79
33496;BME280;19836;55.812;37.560;2023-08-07T00:26:27;99553.81;;;25.93;55.77
33496;BME280;19836;55.812;37.560;2023-08-07T00:28:53;99545.59;;;25.93;55.91
33496;BME280;19836;55.812;37.560;2023-08-07T00:31:19;99539.38;;;25.91;55.99
33496;BME280;19836;55.812;37.560;2023-08-07T00:33:45;99537.50;;;25.92;56.04
33496;BME280;19836;55.812;37.560;2023-08-07T00:36:12;99540.78;;;25.86;55.99
33496;BME280;19836;55.812;37.560;2023-08-07T00:38:37;99547.31;;;25.85;56.25
33496;BME280;19836;55.812;37.560;2023-08-07T00:41:03;99536.75;;;25.80;56.18
33496;BME280;19836;55.812;37.560;2023-08-07T00:43:29;99532.28;;;25.79;56.19
33496;BME280;19836;55.812;37.560;2023-08-07T00:45:55;99538.78;;;25.78;56.22
33496;BME280;19836;55.812;37.560;2023-08-07T00:48:21;99540.81;;;25.76;56.27
33496;BME280;19836;55.812;37.560;2023-08-07T00:50:49;99541.09;;;25.73;56.29
33496;BME280;19836;55.812;37.560;2023-08-07T00:53:16;99538.50;;;25.72;56.40
33496;BME280;19836;55.812;37.560;2023-08-07T00:55:43;99544.28;;;25.69;56.64
33496;BME280;19836;55.812;37.560;2023-08-07T00:58:09;99539.22;;;25.64;56.81
33496;BME280;19836;55.812;37.560;2023-08-07T01:00:35;99530.28;;;25.62;56.72
33496;BME280;19836;55.812;37.560;2023-08-07T01:03:01;99529.56;;;25.60;56.71
33496;BME280;19836;55.812;37.560;2023-08-07T01:05:27;99529.84;;;25.57;56.83
33496;BME280;19836;55.812;37.560;2023-08-07T01:07:53;99520.91;;;25.55;57.00
33496;BME280;19836;55.812;37.560;2023-08-07T01:14:10;99527.56;;;25.53;56.96
33496;BME280;19836;55.812;37.560;2023-08-07T01:16:55;99524.22;;;25.49;56.91
33496;BME280;19836;55.812;37.560;2023-08-07T01:19:27;99521.63;;;25.48;57.07
33496;BME280;19836;55.812;37.560;2023-08-07T01:22:13;99517.59;;;25.42;57.24
33496;BME280;19836;55.812;37.560;2023-08-07T01:24:42;99515.72;;;25.43;57.37
33496;BME280;19836;55.812;37.560;2023-08-07T01:30:00;99516.88;;;25.40;57.39
33496;BME280;19836;55.812;37.560;2023-08-07T01:35:08;99508.47;;;25.32;57.55
33496;BME280;19836;55.812;37.560;2023-08-07T01:37:40;99508.63;;;25.31;57.22
33496;BME280;19836;55.812;37.560;2023-08-07T01:40:08;99505.03;;;25.30;57.51
33496;BME280;19836;55.812;37.560;2023-08-07T01:42:35;99517.16;;;25.28;57.45
33496;BME280;19836;55.812;37.560;2023-08-07T01:45:01;99516.53;;;25.24;57.60
33496;BME280;19836;55.812;37.560;2023-08-07T01:47:32;99509.31;;;25.23;57.56
33496;BME280;19836;55.812;37.560;2023-08-07T01:49:58;99507.56;;;25.22;57.68
33496;BME280;19836;55.812;37.560;2023-08-07T01:52:25;99511.47;;;25.20;57.86
33496;BME280;19836;55.812;37.560;2023-08-07T01:54:51;99503.53;;;25.17;58.11
33496;BME280;19836;55.812;37.560;2023-08-07T01:57:17;99500.94;;;25.15;58.04
33496;BME280;19836;55.812;37.560;2023-08-07T01:59:43;99506.44;;;25.15;58.23
33496;BME280;19836;55.812;37.560;2023-08-07T02:02:10;99506.44;;;25.15;58.18
33496;BME280;19836;55.812;37.560;2023-08-07T02:04:36;99507.41;;;25.14;58.23
33496;BME280;19836;55.812;37.560;2023-08-07T02:07:02;99503.81;;;25.14;58.15
33496;BME280;19836;55.812;37.560;2023-08-07T02:09:28;99512.31;;;25.11;58.55
33496;BME280;19836;55.812;37.560;2023-08-07T02:11:54;99500.78;;;25.07;58.73
33496;BME280;19836;55.812;37.560;2023-08-07T02:14:20;99513.03;;;25.03;58.81
33496;BME280;19836;55.812;37.560;2023-08-07T02:16:46;99518.53;;;25.03;58.88
33496;BME280;19836;55.812;37.560;2023-08-07T02:19:12;99511.59;;;24.99;59.20
33496;BME280;19836;55.812;37.560;2023-08-07T02:21:38;99500.91;;;24.96;59.36
33496;BME280;19836;55.812;37.560;2023-08-07T02:24:04;99511.88;;;24.96;59.47
33496;BME280;19836;55.812;37.560;2023-08-07T02:26:31;99506.41;;;24.96;59.46
33496;BME280;19836;55.812;37.560;2023-08-07T02:28:58;99508.13;;;24.97;59.37
33496;BME280;19836;55.812;37.560;2023-08-07T02:31:24;99502.06;;;24.94;59.41
33496;BME280;19836;55.812;37.560;2023-08-07T02:33:50;99515.66;;;24.95;59.69
33496;BME280;19836;55.812;37.560;2023-08-07T02:36:16;99503.78;;;24.95;59.52
33496;BME280;19836;55.812;37.560;2023-08-07T02:38:42;99513.47;;;24.99;59.35
33496;BME280;19836;55.812;37.560;2023-08-07T02:41:08;99515.34;;;24.98;59.66
33496;BME280;19836;55.812;37.560;2023-08-07T02:43:34;99504.09;;;25.01;59.22
33496;BME280;19836;55.812;37.560;2023-08-07T02:46:00;99502.38;;;25.00;59.48
33496;BME280;19836;55.812;37.560;2023-08-07T02:48:27;99506.28;;;24.98;59.38
33496;BME280;19836;55.812;37.560;2023-08-07T02:50:53;99497.16;;;24.97;59.39
33496;BME280;19836;55.812;37.560;2023-08-07T02:53:18;99499.78;;;24.99;59.54
33496;BME280;19836;55.812;37.560;2023-08-07T02:55:44;99508.84;;;24.99;59.46
33496;BME280;19836;55.812;37.560;2023-08-07T02:58:10;99505.97;;;25.01;59.66
33496;BME280;19836;55.812;37.560;2023-08-07T03:00:36;99504.94;;;25.02;59.61
33496;BME280;19836;55.812;37.560;2023-08-07T03:03:02;99514.75;;;25.04;59.54
33496;BME280;19836;55.812;37.560;2023-08-07T03:05:28;99507.16;;;25.08;59.19
33496;BME280;19836;55.812;37.560;2023-08-07T03:07:54;99494.16;;;25.10;59.13
33496;BME280;19836;55.812;37.560;2023-08-07T03:10:20;99499.50;;;25.11;58.97
33496;BME280;19836;55.812;37.560;2023-08-07T03:12:46;99501.22;;;25.12;58.85
33496;BME280;19836;55.812;37.560;2023-08-07T03:15:12;99499.19;;;25.14;58.98
33496;BME280;19836;55.812;37.560;2023-08-07T03:17:38;99494.44;;;25.16;58.99
33496;BME280;19836;55.812;37.560;2023-08-07T03:20:04;99493.44;;;25.17;59.05
33496;BME280;19836;55.812;37.560;2023-08-07T03:22:31;99494.88;;;25.21;59.20
33496;BME280;19836;55.812;37.560;2023-08-07T03:24:57;99500.38;;;25.21;58.86
33496;BME280;19836;55.812;37.560;2023-08-07T03:27:23;99498.34;;;25.23;58.89
33496;BME280;19836;55.812;37.560;2023-08-07T03:29:49;99501.69;;;25.27;58.77
33496;BME280;19836;55.812;37.560;2023-08-07T03:32:15;99492.31;;;25.29;58.72
33496;BME280;19836;55.812;37.560;2023-08-07T03:34:41;99490.28;;;25.31;58.76
33496;BME280;19836;55.812;37.560;2023-08-07T03:37:08;99492.72;;;25.34;58.65
33496;BME280;19836;55.812;37.560;2023-08-07T03:39:34;99483.50;;;25.35;58.26
33496;BME280;19836;55.812;37.560;2023-08-07T03:42:00;99485.94;;;25.38;58.39
33496;BME280;19836;55.812;37.560;2023-08-07T03:44:26;99482.78;;;25.43;58.43
33496;BME280;19836;55.812;37.560;2023-08-07T03:46:52;99487.41;;;25.42;58.28
33496;BME280;19836;55.812;37.560;2023-08-07T03:49:22;99486.09;;;25.46;58.19
33496;BME280;19836;55.812;37.560;2023-08-07T03:51:50;99482.34;;;25.47;58.07
33496;BME280;19836;55.812;37.560;2023-08-07T03:54:16;99489.28;;;25.51;57.84
33496;BME280;19836;55.812;37.560;2023-08-07T03:56:42;99490.28;;;25.60;57.44
33496;BME280;19836;55.812;37.560;2023-08-07T03:59:08;99495.31;;;25.64;56.95
33496;BME280;19836;55.812;37.560;2023-08-07T04:01:34;99488.53;;;25.68;57.16
33496;BME280;19836;55.812;37.560;2023-08-07T04:04:00;99488.22;;;25.71;57.07
33496;BME280;19836;55.812;37.560;2023-08-07T04:06:26;99481.59;;;25.74;56.90
33496;BME280;19836;55.812;37.560;2023-08-07T04:08:53;99474.06;;;25.76;56.99
33496;BME280;19836;55.812;37.560;2023-08-07T04:11:19;99487.31;;;25.80;56.87
33496;BME280;19836;55.812;37.560;2023-08-07T04:13:45;99487.75;;;25.85;56.86
33496;BME280;19836;55.812;37.560;2023-08-07T04:16:10;99483.00;;;25.87;56.63
33496;BME280;19836;55.812;37.560;2023-08-07T04:18:36;99491.94;;;25.89;56.39
33496;BME280;19836;55.812;37.560;2023-08-07T04:21:03;99493.41;;;25.93;56.24
33496;BME280;19836;55.812;37.560;2023-08-07T04:23:31;99494.84;;;25.97;55.86
33496;BME280;19836;55.812;37.560;2023-08-07T04:25:57;99493.53;;;26.01;55.79
33496;BME280;19836;55.812;37.560;2023-08-07T04:28:23;99493.09;;;26.06;55.50
33496;BME280;19836;55.812;37.560;2023-08-07T04:30:50;99495.56;;;26.09;55.40
33496;BME280;19836;55.812;37.560;2023-08-07T04:33:18;99492.34;;;26.13;55.36
33496;BME280;19836;55.812;37.560;2023-08-07T04:35:44;99497.38;;;26.18;54.98
33496;BME280;19836;55.812;37.560;2023-08-07T04:38:11;99488.69;;;26.22;54.71
33496;BME280;19836;55.812;37.560;2023-08-07T04:40:36;99501.41;;;26.23;54.56
33496;BME280;19836;55.812;37.560;2023-08-07T04:43:03;99498.38;;;26.26;54.43
33496;BME280;19836;55.812;37.560;2023-08-07T04:45:29;99489.81;;;26.29;54.17
33496;BME280;19836;55.812;37.560;2023-08-07T04:47:55;99491.25;;;26.33;54.10
33496;BME280;19836;55.812;37.560;2023-08-07T04:50:21;99485.47;;;26.36;54.29
33496;BME280;19836;55.812;37.560;2023-08-07T04:52:46;99496.00;;;26.41;54.04
33496;BME280;19836;55.812;37.560;2023-08-07T04:55:12;99484.53;;;26.45;53.87
33496;BME280;19836;55.812;37.560;2023-08-07T04:57:38;99487.69;;;26.50;53.92
33496;BME280;19836;55.812;37.560;2023-08-07T05:00:05;99487.41;;;26.53;53.57
33496;BME280;19836;55.812;37.560;2023-08-07T05:02:32;99486.09;;;26.57;53.22
33496;BME280;19836;55.812;37.560;2023-08-07T05:04:58;99474.63;;;26.62;52.93
33496;BME280;19836;55.812;37.560;2023-08-07T05:07:24;99475.19;;;26.65;52.69
33496;BME280;19836;55.812;37.560;2023-08-07T05:09:49;99480.41;;;26.68;52.44
33496;BME280;19836;55.812;37.560;2023-08-07T05:12:16;99477.34;;;26.71;52.58
33496;BME280;19836;55.812;37.560;2023-08-07T05:14:43;99468.63;;;26.76;52.08
33496;BME280;19836;55.812;37.560;2023-08-07T05:17:11;99472.66;;;26.81;52.22
33496;BME280;19836;55.812;37.560;2023-08-07T05:19:38;99474.94;;;26.86;52.17
33496;BME280;19836;55.812;37.560;2023-08-07T05:22:04;99470.38;;;26.94;51.84
33496;BME280;19836;55.812;37.560;2023-08-07T05:24:30;99467.00;;;27.00;51.73
33496;BME280;19836;55.812;37.560;2023-08-07T05:27:00;99471.91;;;27.06;51.72
33496;BME280;19836;55.812;37.560;2023-08-07T05:29:26;99467.34;;;27.15;51.44
33496;BME280;19836;55.812;37.560;2023-08-07T05:31:52;99468.78;;;27.19;51.40
33496;BME280;19836;55.812;37.560;2023-08-07T05:34:18;99461.25;;;27.21;51.37
33496;BME280;19836;55.812;37.560;2023-08-07T05:36:44;99462.66;;;27.25;51.33
33496;BME280;19836;55.812;37.560;2023-08-07T05:39:09;99469.59;;;27.29;51.07
33496;BME280;19836;55.812;37.560;2023-08-07T05:41:36;99459.25;;;27.31;50.84
33496;BME280;19836;55.812;37.560;2023-08-07T05:44:03;99460.53;;;27.36;50.24
33496;BME280;19836;55.812;37.560;2023-08-07T05:46:31;99448.16;;;27.40;49.80
33496;BME280;19836;55.812;37.560;2023-08-07T05:48:56;99450.31;;;27.46;49.69
33496;BME280;19836;55.812;37.560;2023-08-07T05:51:23;99451.53;;;27.52;49.48
33496;BME280;19836;55.812;37.560;2023-08-07T05:53:48;99449.00;;;27.58;49.54
33496;BME280;19836;55.812;37.560;2023-08-07T05:56:14;99443.50;;;27.58;49.14
33496;BME280;19836;55.812;37.560;2023-08-07T05:58:40;99449.69;;;27.60;48.90
33496;BME280;19836;55.812;37.560;2023-08-07T06:01:06;99437.69;;;27.61;48.40
33496;BME280;19836;55.812;37.560;2023-08-07T06:03:32;99437.03;;;27.67;48.22
33496;BME280;19836;55.812;37.560;2023-08-07T06:05:58;99428.28;;;27.72;48.11
33496;BME280;19836;55.812;37.560;2023-08-07T06:08:24;99432.16;;;27.79;47.92
33496;BME280;19836;55.812;37.560;2023-08-07T06:10:50;99438.59;;;27.87;47.80
33496;BME280;19836;55.812;37.560;2023-08-07T06:13:16;99426.91;;;27.93;47.47
33496;BME280;19836;55.812;37.560;2023-08-07T06:15:42;99422.16;;;28.03;46.93
33496;BME280;19836;55.812;37.560;2023-08-07T06:18:08;99422.38;;;28.10;46.81
33496;BME280;19836;55.812;37.560;2023-08-07T06:20:34;99419.63;;;28.18;46.86
33496;BME280;19836;55.812;37.560;2023-08-07T06:23:00;99431.56;;;28.26;46.93
33496;BME280;19836;55.812;37.560;2023-08-07T06:25:26;99426.03;;;28.26;46.94
33496;BME280;19836;55.812;37.560;2023-08-07T06:27:53;99434.31;;;28.26;46.78
33496;BME280;19836;55.812;37.560;2023-08-07T06:30:19;99424.53;;;28.32;46.76
33496;BME280;19836;55.812;37.560;2023-08-07T06:32:45;99430.81;;;28.42;46.58
33496;BME280;19836;55.812;37.560;2023-08-07T06:35:10;99428.25;;;28.48;46.76
33496;BME280;19836;55.812;37.560;2023-08-07T06:37:36;99431.53;;;28.52;46.84
33496;BME280;19836;55.812;37.560;2023-08-07T06:40:02;99434.81;;;28.55;46.51
33496;BME280;19836;55.812;37.560;2023-08-07T06:42:30;99431.03;;;28.56;46.44
33496;BME280;19836;55.812;37.560;2023-08-07T06:44:56;99437.63;;;28.63;46.14
33496;BME280;19836;55.812;37.560;2023-08-07T06:47:22;99427.63;;;28.70;46.02
33496;BME280;19836;55.812;37.560;2023-08-07T06:49:48;99433.16;;;28.70;46.09
33496;BME280;19836;55.812;37.560;2023-08-07T06:52:14;99433.16;;;28.70;46.23
33496;BME280;19836;55.812;37.560;2023-08-07T06:54:40;99416.59;;;28.70;46.08
33496;BME280;19836;55.812;37.560;2023-08-07T06:57:06;99424.53;;;28.73;45.71
33496;BME280;19836;55.812;37.560;2023-08-07T06:59:32;99420.59;;;28.76;45.51
33496;BME280;19836;55.812;37.560;2023-08-07T07:01:57;99422.00;;;28.80;45.74
33496;BME280;19836;55.812;37.560;2023-08-07T07:04:23;99417.31;;;28.80;45.58
33496;BME280;19836;55.812;37.560;2023-08-07T07:06:49;99413.50;;;28.81;45.42
33496;BME280;19836;55.812;37.560;2023-08-07T07:09:15;99421.78;;;28.81;45.46
33496;BME280;19836;55.812;37.560;2023-08-07T07:11:43;99414.72;;;28.79;45.31
33496;BME280;19836;55.812;37.560;2023-08-07T07:14:09;99404.03;;;28.76;44.74
33496;BME280;19836;55.812;37.560;2023-08-07T07:16:36;99411.44;;;28.75;44.90
33496;BME280;19836;55.812;37.560;2023-08-07T07:19:01;99411.78;;;28.80;44.50
33496;BME280;19836;55.812;37.560;2023-08-07T07:21:28;99401.81;;;28.87;44.26
33496;BME280;19836;55.812;37.560;2023-08-07T07:23:53;99406.81;;;28.92;44.20
33496;BME280;19836;55.812;37.560;2023-08-07T07:26:19;99391.53;;;28.97;44.37
33496;BME280;19836;55.812;37.560;2023-08-07T07:28:45;99388.75;;;29.05;44.00
33496;BME280;19836;55.812;37.560;2023-08-07T07:31:11;99400.00;;;29.12;44.01
33496;BME280;19836;55.812;37.560;2023-08-07T07:33:38;99389.47;;;29.15;43.74
33496;BME280;19836;55.812;37.560;2023-08-07T07:36:05;99394.66;;;29.18;43.59
33496;BME280;19836;55.812;37.560;2023-08-07T07:38:32;99400.69;;;29.22;43.75
33496;BME280;19836;55.812;37.560;2023-08-07T07:40:58;99394.97;;;29.31;43.54
33496;BME280;19836;55.812;37.560;2023-08-07T07:43:24;99395.66;;;29.41;43.97
33496;BME280;19836;55.812;37.560;2023-08-07T07:45:50;99393.25;;;29.46;44.13
33496;BME280;19836;55.812;37.560;2023-08-07T07:48:16;99396.53;;;29.50;43.92
33496;BME280;19836;55.812;37.560;2023-08-07T07:50:42;99403.97;;;29.49;43.79
33496;BME280;19836;55.812;37.560;2023-08-07T07:53:08;99387.72;;;29.46;43.74
33496;BME280;19836;55.812;37.560;2023-08-07T07:55:34;99382.06;;;29.40;43.45
33496;BME280;19836;55.812;37.560;2023-08-07T07:58:00;99391.00;;;29.42;43.63
33496;BME280;19836;55.812;37.560;2023-08-07T08:00:26;99380.84;;;29.42;43.45
33496;BME280;19836;55.812;37.560;2023-08-07T08:02:53;99388.59;;;29.47;43.03
33496;BME280;19836;55.812;37.560;2023-08-07T08:05:19;99384.66;;;29.57;43.05
33496;BME280;19836;55.812;37.560;2023-08-07T08:07:46;99391.19;;;29.64;42.71
33496;BME280;19836;55.812;37.560;2023-08-07T08:10:12;99379.81;;;29.67;42.55
33496;BME280;19836;55.812;37.560;2023-08-07T08:12:39;99390.84;;;29.75;42.65
33496;BME280;19836;55.812;37.560;2023-08-07T08:15:05;99389.09;;;29.82;42.71
33496;BME280;19836;55.812;37.560;2023-08-07T08:17:32;99387.53;;;29.88;43.05
33496;BME280;19836;55.812;37.560;2023-08-07T08:19:58;99382.16;;;29.94;42.99
33496;BME280;19836;55.812;37.560;2023-08-07T08:22:25;99379.38;;;30.02;42.73
33496;BME280;19836;55.812;37.560;2023-08-07T08:24:51;99372.78;;;30.11;42.77
33496;BME280;19836;55.812;37.560;2023-08-07T08:27:17;99383.16;;;30.17;42.23
33496;BME280;19836;55.812;37.560;2023-08-07T08:29:44;99378.31;;;30.19;42.24
33496;BME280;19836;55.812;37.560;2023-08-07T08:32:11;99376.03;;;30.23;42.11
33496;BME280;19836;55.812;37.560;2023-08-07T08:34:37;99376.53;;;30.26;41.88
33496;BME280;19836;55.812;37.560;2023-08-07T08:37:03;99365.47;;;30.26;41.97
33496;BME280;19836;55.812;37.560;2023-08-07T08:39:31;99363.41;;;30.28;42.14
33496;BME280;19836;55.812;37.560;2023-08-07T08:41:59;99376.53;;;30.26;41.98
33496;BME280;19836;55.812;37.560;2023-08-07T08:44:26;99363.44;;;30.20;41.87
33496;BME280;19836;55.812;37.560;2023-08-07T08:46:56;99351.88;;;30.17;42.00
33496;BME280;19836;55.812;37.560;2023-08-07T08:49:30;99355.50;;;30.17;42.22
33496;BME280;19836;55.812;37.560;2023-08-07T08:51:58;99350.97;;;30.24;42.16
33496;BME280;19836;55.812;37.560;2023-08-07T08:54:25;99349.19;;;30.31;41.78
33496;BME280;19836;55.812;37.560;2023-08-07T08:56:52;99338.84;;;30.33;41.05
33496;BME280;19836;55.812;37.560;2023-08-07T08:59:18;99347.47;;;30.38;41.23
33496;BME280;19836;55.812;37.560;2023-08-07T09:01:46;99334.78;;;30.44;41.70
33496;BME280;19836;55.812;37.560;2023-08-07T09:04:12;99340.16;;;30.45;41.61
33496;BME280;19836;55.812;37.560;2023-08-07T09:06:39;99342.41;;;30.42;41.52
33496;BME280;19836;55.812;37.560;2023-08-07T09:09:07;99343.28;;;30.42;41.38
33496;BME280;19836;55.812;37.560;2023-08-07T09:11:34;99339.09;;;30.46;41.34
33496;BME280;19836;55.812;37.560;2023-08-07T09:14:02;99328.19;;;30.53;41.45
33496;BME280;19836;55.812;37.560;2023-08-07T09:16:30;99326.22;;;30.61;41.05
33496;BME280;19836;55.812;37.560;2023-08-07T09:18:56;99325.63;;;30.74;41.22
33496;BME280;19836;55.812;37.560;2023-08-07T09:21:22;99313.78;;;30.88;40.91
33496;BME280;19836;55.812;37.560;2023-08-07T09:23:48;99314.16;;;31.82;39.94
33496;BME280;19836;55.812;37.560;2023-08-07T09:26:21;99319.53;;;33.67;36.72
33496;BME280;19836;55.812;37.560;2023-08-07T09:28:48;99331.44;;;35.49;34.52
33496;BME280;19836;55.812;37.560;2023-08-07T09:31:15;99326.25;;;36.75;31.95
33496;BME280;19836;55.812;37.560;2023-08-07T09:33:42;99330.63;;;37.64;29.92
33496;BME280;19836;55.812;37.560;2023-08-07T09:36:12;99320.63;;;38.35;28.93
33496;BME280;19836;55.812;37.560;2023-08-07T09:38:38;99317.63;;;39.31;27.46
33496;BME280;19836;55.812;37.560;2023-08-07T09:41:03;99311.38;;;40.05;26.44
33496;BME280;19836;55.812;37.560;2023-08-07T09:43:34;99317.19;;;40.61;25.72
33496;BME280;19836;55.812;37.560;2023-08-07T09:46:07;99313.63;;;41.05;24.52
33496;BME280;19836;55.812;37.560;2023-08-07T09:48:43;99311.38;;;41.63;24.48
33496;BME280;19836;55.812;37.560;2023-08-07T09:51:09;99313.38;;;42.17;23.65
33496;BME280;19836;55.812;37.560;2023-08-07T09:53:35;99307.03;;;42.43;22.58
33496;BME280;19836;55.812;37.560;2023-08-07T09:56:01;99298.50;;;42.81;22.10
33496;BME280;19836;55.812;37.560;2023-08-07T09:58:28;99295.03;;;43.22;21.77
33496;BME280;19836;55.812;37.560;2023-08-07T10:00:55;99298.50;;;43.56;21.63
33496;BME280;19836;55.812;37.560;2023-08-07T10:03:28;99301.28;;;43.82;21.11
33496;BME280;19836;55.812;37.560;2023-08-07T10:05:54;99295.38;;;44.20;20.71
33496;BME280;19836;55.812;37.560;2023-08-07T10:08:21;99291.53;;;44.46;20.02
33496;BME280;19836;55.812;37.560;2023-08-07T10:10:47;99280.41;;;44.76;20.12
33496;BME280;19836;55.812;37.560;2023-08-07T10:13:14;99284.47;;;45.00;19.80
33496;BME280;19836;55.812;37.560;2023-08-07T10:15:40;99292.97;;;45.10;19.74
33496;BME280;19836;55.812;37.560;2023-08-07T10:18:08;99283.63;;;45.05;19.20
33496;BME280;19836;55.812;37.560;2023-08-07T10:20:34;99272.59;;;45.23;18.62
33496;BME280;19836;55.812;37.560;2023-08-07T10:23:09;99276.06;;;45.55;18.89
33496;BME280;19836;55.812;37.560;2023-08-07T10:25:38;99278.94;;;45.70;18.55
33496;BME280;19836;55.812;37.560;2023-08-07T10:28:08;99267.59;;;45.85;18.05
33496;BME280;19836;55.812;37.560;2023-08-07T10:30:36;99269.25;;;45.41;18.06
33496;BME280;19836;55.812;37.560;2023-08-07T10:33:03;99271.56;;;45.84;18.40
33496;BME280;19836;55.812;37.560;2023-08-07T10:35:31;99273.19;;;46.30;17.98
33496;BME280;19836;55.812;37.560;2023-08-07T10:38:08;99258.63;;;46.57;17.91
33496;BME280;19836;55.812;37.560;2023-08-07T10:40:58;99275.19;;;46.93;17.89
33496;BME280;19836;55.812;37.560;2023-08-07T10:43:25;99269.78;;;46.97;17.82
33496;BME280;19836;55.812;37.560;2023-08-07T10:45:51;99246.84;;;46.88;17.36
33496;BME280;19836;55.812;37.560;2023-08-07T10:48:20;99254.53;;;46.88;17.11
33496;BME280;19836;55.812;37.560;2023-08-07T10:50:51;99239.44;;;46.92;17.14
33496;BME280;19836;55.812;37.560;2023-08-07T10:53:35;99227.84;;;47.32;17.19
33496;BME280;19836;55.812;37.560;2023-08-07T10:56:03;99226.88;;;47.08;17.18
33496;BME280;19836;55.812;37.560;2023-08-07T11:01:15;99234.44;;;46.69;17.25
33496;BME280;19836;55.812;37.560;2023-08-07T11:03:43;99229.59;;;46.80;17.28
33496;BME280;19836;55.812;37.560;2023-08-07T11:06:10;99229.19;;;47.01;16.88
33496;BME280;19836;55.812;37.560;2023-08-07T11:08:37;99214.16;;;47.34;16.55
33496;BME280;19836;55.812;37.560;2023-08-07T11:11:04;99220.38;;;47.41;16.61
33496;BME280;19836;55.812;37.560;2023-08-07T11:13:31;99220.06;;;47.81;16.73
33496;BME280;19836;55.812;37.560;2023-08-07T11:15:56;99223.22;;;48.03;16.45
33496;BME280;19836;55.812;37.560;2023-08-07T11:18:22;99207.72;;;47.91;16.18
33496;BME280;19836;55.812;37.560;2023-08-07T11:20:49;99206.44;;;47.73;16.38
33496;BME280;19836;55.812;37.560;2023-08-07T11:23:14;99201.97;;;47.67;16.39
33496;BME280;19836;55.812;37.560;2023-08-07T11:25:41;99202.66;;;47.54;16.47
33496;BME280;19836;55.812;37.560;2023-08-07T11:28:07;99196.28;;;47.67;16.58
33496;BME280;19836;55.812;37.560;2023-08-07T11:30:34;99216.06;;;47.82;16.43
33496;BME280;19836;55.812;37.560;2023-08-07T11:33:01;99202.72;;;47.83;16.07
33496;BME280;19836;55.812;37.560;2023-08-07T11:35:27;99201.63;;;47.74;15.97
33496;BME280;19836;55.812;37.560;2023-08-07T11:37:54;99196.69;;;47.84;15.85
33496;BME280;19836;55.812;37.560;2023-08-07T11:40:20;99192.22;;;48.02;15.88
33496;BME280;19836;55.812;37.560;2023-08-07T11:42:46;99188.41;;;48.16;15.97
33496;BME280;19836;55.812;37.560;2023-08-07T11:45:12;99184.38;;;48.41;15.61
33496;BME280;19836;55.812;37.560;2023-08-07T11:47:38;99179.91;;;48.58;15.57
33496;BME280;19836;55.812;37.560;2023-08-07T11:50:05;99187.28;;;48.59;15.42
33496;BME280;19836;55.812;37.560;2023-08-07T11:52:31;99185.72;;;48.48;15.45
33496;BME280;19836;55.812;37.560;2023-08-07T11:54:57;99169.84;;;48.42;15.67
33496;BME280;19836;55.812;37.560;2023-08-07T11:57:24;99170.09;;;48.46;15.67
33496;BME280;19836;55.812;37.560;2023-08-07T11:59:50;99167.81;;;48.01;15.72
33496;BME280;19836;55.812;37.560;2023-08-07T12:02:16;99170.81;;;47.86;16.41
33496;BME280;19836;55.812;37.560;2023-08-07T12:04:43;99160.25;;;47.91;16.00
33496;BME280;19836;55.812;37.560;2023-08-07T12:07:09;99156.38;;;47.82;16.29
33496;BME280;19836;55.812;37.560;2023-08-07T12:09:36;99161.47;;;47.85;16.28
33496;BME280;19836;55.812;37.560;2023-08-07T12:12:03;99152.25;;;48.40;15.67
33496;BME280;19836;55.812;37.560;2023-08-07T12:14:30;99155.56;;;48.47;15.67
33496;BME280;19836;55.812;37.560;2023-08-07T12:16:56;99147.59;;;48.68;15.55
33496;BME280;19836;55.812;37.560;2023-08-07T12:19:22;99144.38;;;48.74;15.51
33496;BME280;19836;55.812;37.560;2023-08-07T12:21:48;99143.66;;;48.45;15.42
33496;BME280;19836;55.812;37.560;2023-08-07T12:24:14;99130.00;;;48.24;16.05
33496;BME280;19836;55.812;37.560;2023-08-07T12:26:40;99144.81;;;47.97;16.03
33496;BME280;19836;55.812;37.560;2023-08-07T12:29:06;99127.34;;;47.85;16.15
33496;BME280;19836;55.812;37.560;2023-08-07T12:31:32;99135.38;;;47.78;16.14
33496;BME280;19836;55.812;37.560;2023-08-07T12:33:58;99122.78;;;47.84;16.46
33496;BME280;19836;55.812;37.560;2023-08-07T12:36:23;99120.84;;;48.03;16.33
33496;BME280;19836;55.812;37.560;2023-08-07T12:38:49;99120.31;;;48.01;16.68
33496;BME280;19836;55.812;37.560;2023-08-07T12:41:15;99114.41;;;48.40;16.02
33496;BME280;19836;55.812;37.560;2023-08-07T12:43:41;99117.44;;;48.48;15.97
33496;BME280;19836;55.812;37.560;2023-08-07T12:46:07;99109.84;;;47.97;15.85
33496;BME280;19836;55.812;37.560;2023-08-07T12:48:33;99112.13;;;47.71;16.14
33496;BME280;19836;55.812;37.560;2023-08-07T12:50:58;99121.88;;;47.65;16.42
33496;BME280;19836;55.812;37.560;2023-08-07T12:53:24;99110.56;;;48.07;16.29
33496;BME280;19836;55.812;37.560;2023-08-07T12:55:50;99099.13;;;48.54;15.65
33496;BME280;19836;55.812;37.560;2023-08-07T12:58:16;99105.75;;;48.68;15.34
33496;BME280;19836;55.812;37.560;2023-08-07T13:00:44;99095.25;;;48.50;15.91